TimePDT,TemperatureF,Dew PointF,Humidity,Sea Level PressureIn,VisibilityMPH,Wind Direction,Wind SpeedMPH,Gust SpeedMPH,PrecipitationIn,Events,Conditions,WindDirDegrees,DateUTC
12:53 AM,54.0,37.9,55,29.91,10.0,North,10.4,-,N/A,,Overcast,360,2013-09-26 07:53:00
1:53 AM,54.0,39.9,59,29.92,10.0,North,11.5,-,N/A,,Overcast,360,2013-09-26 08:53:00
2:53 AM,54.0,39.9,59,29.92,10.0,North,9.2,-,N/A,,Overcast,350,2013-09-26 09:53:00
3:53 AM,53.1,39.9,61,29.92,10.0,NNW,11.5,-,N/A,,Overcast,340,2013-09-26 10:53:00
4:53 AM,52.0,41.0,66,29.94,10.0,North,11.5,-,N/A,,Overcast,350,2013-09-26 11:53:00
5:53 AM,52.0,42.1,69,29.96,10.0,North,13.8,-,N/A,,Overcast,350,2013-09-26 12:53:00
6:53 AM,51.1,42.1,71,29.96,10.0,NNW,17.3,-,N/A,,Overcast,330,2013-09-26 13:53:00
7:53 AM,52.0,41.0,66,29.99,10.0,North,17.3,-,N/A,,Overcast,350,2013-09-26 14:53:00
8:53 AM,54.0,41.0,62,30.00,10.0,NNW,19.6,-,N/A,,Overcast,340,2013-09-26 15:53:00
9:53 AM,59.0,39.0,48,30.01,10.0,North,18.4,-,N/A,,Overcast,360,2013-09-26 16:53:00
10:53 AM,61.0,37.0,41,30.01,10.0,North,19.6,-,N/A,,Mostly Cloudy,350,2013-09-26 17:53:00
11:53 AM,63.0,36.0,37,30.00,10.0,North,16.1,23.0,N/A,,Clear,10,2013-09-26 18:53:00
12:53 PM,64.9,33.1,31,29.99,10.0,Variable,5.8,17.3,N/A,,Scattered Clouds,0,2013-09-26 19:53:00
1:53 PM,66.9,33.1,28,29.98,10.0,NNW,13.8,17.3,N/A,,Scattered Clouds,330,2013-09-26 20:53:00
2:53 PM,66.9,30.0,25,29.98,10.0,North,6.9,-,N/A,,Partly Cloudy,350,2013-09-26 21:53:00
3:53 PM,66.0,30.9,27,29.98,10.0,North,6.9,-,N/A,,Overcast,350,2013-09-26 22:53:00
4:53 PM,66.0,30.9,27,29.99,10.0,North,8.1,-,N/A,,Partly Cloudy,360,2013-09-26 23:53:00
5:53 PM,64.9,30.9,28,29.99,10.0,NW,10.4,-,N/A,,Clear,310,2013-09-27 00:53:00
6:53 PM,61.0,30.9,32,30.01,10.0,WNW,6.9,-,N/A,,Clear,300,2013-09-27 01:53:00
7:53 PM,57.0,30.9,37,30.02,10.0,WNW,9.2,-,N/A,,Clear,300,2013-09-27 02:53:00
8:53 PM,55.0,30.9,40,30.03,10.0,NW,8.1,-,N/A,,Clear,310,2013-09-27 03:53:00
9:53 PM,53.1,33.1,47,30.02,10.0,Calm,Calm,-,N/A,,Clear,0,2013-09-27 04:53:00
10:53 PM,55.0,35.1,47,30.02,10.0,WNW,12.7,-,N/A,,Clear,300,2013-09-27 05:53:00
11:53 PM,51.1,35.1,54,30.02,10.0,East,3.5,-,N/A,,Clear,80,2013-09-27 06:53:00